sensor_id;sensor_type;location;lat;lon;timestamp;temperature;humidity
1415;DHT22;702;49.466;11.086;2022-08-21T00:00:34;16.80;99.90
1415;DHT22;702;49.466;11.086;2022-08-21T00:03:03;16.90;99.90
1415;DHT22;702;49.466;11.086;2022-08-21T00:05:36;16.90;99.90
1415;DHT22;702;49.466;11.086;2022-08-21T00:08:04;16.90;99.90
1415;DHT22;702;49.466;11.086;2022-08-21T00:10:32;16.70;99.90
1415;DHT22;702;49.466;11.086;2022-08-21T00:13:00;16.70;99.90
1415;DHT22;702;49.466;11.086;2022-08-21T00:15:32;16.80;99.90
1415;DHT22;702;49.466;11.086;2022-08-21T00:18:02;16.70;99.90
1415;DHT22;702;49.466;11.086;2022-08-21T00:20:30;16.70;99.90
1415;DHT22;702;49.466;11.086;2022-08-21T00:22:58;16.70;99.90
1415;DHT22;702;49.466;11.086;2022-08-21T00:25:26;16.70;99.90
1415;DHT22;702;49.466;11.086;2022-08-21T00:27:54;16.80;99.90
1415;DHT22;702;49.466;11.086;2022-08-21T00:30:23;16.70;99.90
1415;DHT22;702;49.466;11.086;2022-08-21T00:32:54;16.70;99.90
1415;DHT22;702;49.466;11.086;2022-08-21T00:35:25;16.70;99.90
1415;DHT22;702;49.466;11.086;2022-08-21T00:37:53;16.60;99.90
1415;DHT22;702;49.466;11.086;2022-08-21T00:40:25;16.60;99.90
1415;DHT22;702;49.466;11.086;2022-08-21T00:42:54;16.60;99.90
1415;DHT22;702;49.466;11.086;2022-08-21T00:45:22;16.60;99.90
1415;DHT22;702;49.466;11.086;2022-08-21T00:47:50;16.50;99.90
1415;DHT22;702;49.466;11.086;2022-08-21T00:50:21;16.50;99.90
1415;DHT22;702;49.466;11.086;2022-08-21T00:52:50;16.50;99.90
1415;DHT22;702;49.466;11.086;2022-08-21T00:55:20;16.50;99.90
1415;DHT22;702;49.466;11.086;2022-08-21T00:57:52;16.50;99.90
1415;DHT22;702;49.466;11.086;2022-08-21T01:00:26;16.40;99.90
1415;DHT22;702;49.466;11.086;2022-08-21T01:02:56;16.40;99.90
1415;DHT22;702;49.466;11.086;2022-08-21T01:05:26;16.40;99.90
1415;DHT22;702;49.466;11.086;2022-08-21T01:07:54;16.40;99.90
1415;DHT22;702;49.466;11.086;2022-08-21T01:10:23;16.30;99.90
1415;DHT22;702;49.466;11.086;2022-08-21T01:12:51;16.30;99.90
1415;DHT22;702;49.466;11.086;2022-08-21T01:15:22;16.30;99.90
1415;DHT22;702;49.466;11.086;2022-08-21T01:17:52;16.20;99.90
1415;DHT22;702;49.466;11.086;2022-08-21T01:20:20;16.10;99.90
1415;DHT22;702;49.466;11.086;2022-08-21T01:22:49;16.00;99.90
1415;DHT22;702;49.466;11.086;2022-08-21T01:25:17;16.10;99.90
1415;DHT22;702;49.466;11.086;2022-08-21T01:27:46;16.10;99.90
1415;DHT22;702;49.466;11.086;2022-08-21T01:30:17;16.20;99.90
1415;DHT22;702;49.466;11.086;2022-08-21T01:32:47;16.20;99.90
1415;DHT22;702;49.466;11.086;2022-08-21T01:35:16;16.20;99.90
1415;DHT22;702;49.466;11.086;2022-08-21T01:37:44;16.20;99.90
1415;DHT22;702;49.466;11.086;2022-08-21T01:40:15;16.20;99.90
1415;DHT22;702;49.466;11.086;2022-08-21T01:42:43;16.20;99.90
1415;DHT22;702;49.466;11.086;2022-08-21T01:45:12;16.20;99.90
1415;DHT22;702;49.466;11.086;2022-08-21T01:47:40;16.10;99.90
1415;DHT22;702;49.466;11.086;2022-08-21T01:50:11;16.00;99.90
1415;DHT22;702;49.466;11.086;2022-08-21T01:52:40;16.00;99.90
1415;DHT22;702;49.466;11.086;2022-08-21T01:55:09;16.00;99.90
1415;DHT22;702;49.466;11.086;2022-08-21T01:57:39;15.90;99.90
1415;DHT22;702;49.466;11.086;2022-08-21T02:00:10;15.90;99.90
1415;DHT22;702;49.466;11.086;2022-08-21T02:02:39;15.80;99.90
1415;DHT22;702;49.466;11.086;2022-08-21T02:05:08;15.90;99.90
1415;DHT22;702;49.466;11.086;2022-08-21T02:07:37;16.00;99.90
1415;DHT22;702;49.466;11.086;2022-08-21T02:10:07;15.90;99.90
1415;DHT22;702;49.466;11.086;2022-08-21T02:12:36;15.90;99.90
1415;DHT22;702;49.466;11.086;2022-08-21T02:15:06;15.90;99.90
1415;DHT22;702;49.466;11.086;2022-08-21T02:17:40;16.00;99.90
1415;DHT22;702;49.466;11.086;2022-08-21T02:20:09;16.00;99.90
1415;DHT22;702;49.466;11.086;2022-08-21T02:22:37;16.00;99.90
1415;DHT22;702;49.466;11.086;2022-08-21T02:25:05;16.10;99.90
1415;DHT22;702;49.466;11.086;2022-08-21T02:27:39;16.20;99.90
1415;DHT22;702;49.466;11.086;2022-08-21T02:30:11;16.20;99.90
1415;DHT22;702;49.466;11.086;2022-08-21T02:32:40;16.20;99.90
1415;DHT22;702;49.466;11.086;2022-08-21T02:35:09;16.20;99.90
1415;DHT22;702;49.466;11.086;2022-08-21T02:37:43;16.20;99.90
1415;DHT22;702;49.466;11.086;2022-08-21T02:40:13;16.20;99.90
1415;DHT22;702;49.466;11.086;2022-08-21T02:42:42;16.20;99.90
1415;DHT22;702;49.466;11.086;2022-08-21T02:45:11;16.20;99.90
1415;DHT22;702;49.466;11.086;2022-08-21T02:47:40;16.20;99.90
1415;DHT22;702;49.466;11.086;2022-08-21T02:50:19;16.20;99.90
1415;DHT22;702;49.466;11.086;2022-08-21T02:52:48;16.20;99.90
1415;DHT22;702;49.466;11.086;2022-08-21T02:55:17;16.30;99.90
1415;DHT22;702;49.466;11.086;2022-08-21T02:57:44;16.30;99.90
1415;DHT22;702;49.466;11.086;2022-08-21T03:00:13;16.30;99.90
1415;DHT22;702;49.466;11.086;2022-08-21T03:02:42;16.30;99.90
1415;DHT22;702;49.466;11.086;2022-08-21T03:05:12;16.30;99.90
1415;DHT22;702;49.466;11.086;2022-08-21T03:07:41;16.30;99.90
1415;DHT22;702;49.466;11.086;2022-08-21T03:10:09;16.10;99.90
1415;DHT22;702;49.466;11.086;2022-08-21T03:12:37;16.10;99.90
1415;DHT22;702;49.466;11.086;2022-08-21T03:15:07;16.10;99.90
1415;DHT22;702;49.466;11.086;2022-08-21T03:17:41;16.00;99.90
1415;DHT22;702;49.466;11.086;2022-08-21T03:20:09;15.90;99.90
1415;DHT22;702;49.466;11.086;2022-08-21T03:22:38;15.80;99.90
1415;DHT22;702;49.466;11.086;2022-08-21T03:25:06;15.70;99.90
1415;DHT22;702;49.466;11.086;2022-08-21T03:27:36;15.60;99.90
1415;DHT22;702;49.466;11.086;2022-08-21T03:30:06;15.60;99.90
1415;DHT22;702;49.466;11.086;2022-08-21T03:32:34;15.50;99.90
1415;DHT22;702;49.466;11.086;2022-08-21T03:35:04;15.50;99.90
1415;DHT22;702;49.466;11.086;2022-08-21T03:37:32;15.50;99.90
1415;DHT22;702;49.466;11.086;2022-08-21T03:39:59;15.40;99.90
1415;DHT22;702;49.466;11.086;2022-08-21T03:42:27;15.30;99.90
1415;DHT22;702;49.466;11.086;2022-08-21T03:44:54;15.30;99.90
1415;DHT22;702;49.466;11.086;2022-08-21T03:47:21;15.30;99.90
1415;DHT22;702;49.466;11.086;2022-08-21T03:49:49;15.20;99.90
1415;DHT22;702;49.466;11.086;2022-08-21T03:52:18;15.20;99.90
1415;DHT22;702;49.466;11.086;2022-08-21T03:54:46;15.20;99.90
1415;DHT22;702;49.466;11.086;2022-08-21T03:57:13;15.20;99.90
1415;DHT22;702;49.466;11.086;2022-08-21T03:59:40;15.30;99.90
1415;DHT22;702;49.466;11.086;2022-08-21T04:02:10;15.30;99.90
1415;DHT22;702;49.466;11.086;2022-08-21T04:04:37;15.30;99.90
1415;DHT22;702;49.466;11.086;2022-08-21T04:07:04;15.30;99.90
1415;DHT22;702;49.466;11.086;2022-08-21T04:09:33;15.30;99.90
1415;DHT22;702;49.466;11.086;2022-08-21T04:12:01;15.40;99.90
1415;DHT22;702;49.466;11.086;2022-08-21T04:14:29;15.40;99.90
1415;DHT22;702;49.466;11.086;2022-08-21T04:16:56;15.50;99.90
1415;DHT22;702;49.466;11.086;2022-08-21T04:19:24;15.50;99.90
1415;DHT22;702;49.466;11.086;2022-08-21T04:21:51;15.60;99.90
1415;DHT22;702;49.466;11.086;2022-08-21T04:24:18;15.60;99.90
1415;DHT22;702;49.466;11.086;2022-08-21T04:26:47;15.60;99.90
1415;DHT22;702;49.466;11.086;2022-08-21T04:29:14;15.70;99.90
1415;DHT22;702;49.466;11.086;2022-08-21T04:31:41;15.70;99.90
1415;DHT22;702;49.466;11.086;2022-08-21T04:34:09;15.70;99.90
1415;DHT22;702;49.466;11.086;2022-08-21T04:36:36;15.80;99.90
1415;DHT22;702;49.466;11.086;2022-08-21T04:39:04;15.80;99.90
1415;DHT22;702;49.466;11.086;2022-08-21T04:41:31;15.80;99.90
1415;DHT22;702;49.466;11.086;2022-08-21T04:44:00;15.80;99.90
1415;DHT22;702;49.466;11.086;2022-08-21T04:46:28;15.80;99.90
1415;DHT22;702;49.466;11.086;2022-08-21T04:48:55;15.80;99.90
1415;DHT22;702;49.466;11.086;2022-08-21T04:51:26;15.90;99.90
1415;DHT22;702;49.466;11.086;2022-08-21T04:53:58;15.90;99.90
1415;DHT22;702;49.466;11.086;2022-08-21T04:56:30;16.00;99.90
1415;DHT22;702;49.466;11.086;2022-08-21T04:59:05;16.00;99.90
1415;DHT22;702;49.466;11.086;2022-08-21T05:01:38;16.00;99.90
1415;DHT22;702;49.466;11.086;2022-08-21T05:04:11;16.00;99.90
1415;DHT22;702;49.466;11.086;2022-08-21T05:06:42;16.00;99.90
1415;DHT22;702;49.466;11.086;2022-08-21T05:09:13;16.00;99.90
1415;DHT22;702;49.466;11.086;2022-08-21T05:11:43;16.00;99.90
1415;DHT22;702;49.466;11.086;2022-08-21T05:14:12;16.00;99.90
1415;DHT22;702;49.466;11.086;2022-08-21T05:16:40;16.00;99.90
1415;DHT22;702;49.466;11.086;2022-08-21T05:19:08;16.20;99.90
1415;DHT22;702;49.466;11.086;2022-08-21T05:21:37;16.20;99.90
1415;DHT22;702;49.466;11.086;2022-08-21T05:24:07;16.20;99.90
1415;DHT22;702;49.466;11.086;2022-08-21T05:26:34;16.20;99.90
1415;DHT22;702;49.466;11.086;2022-08-21T05:29:02;16.20;99.90
1415;DHT22;702;49.466;11.086;2022-08-21T05:31:31;16.30;99.90
1415;DHT22;702;49.466;11.086;2022-08-21T05:33:59;16.20;99.90
1415;DHT22;702;49.466;11.086;2022-08-21T05:36:27;16.30;99.90
1415;DHT22;702;49.466;11.086;2022-08-21T05:38:54;16.30;99.90
1415;DHT22;702;49.466;11.086;2022-08-21T05:41:21;16.40;99.90
1415;DHT22;702;49.466;11.086;2022-08-21T05:43:49;16.50;99.90
1415;DHT22;702;49.466;11.086;2022-08-21T05:46:16;16.40;99.90
1415;DHT22;702;49.466;11.086;2022-08-21T05:48:45;16.50;99.90
1415;DHT22;702;49.466;11.086;2022-08-21T05:51:14;16.50;99.90
1415;DHT22;702;49.466;11.086;2022-08-21T05:53:43;16.70;99.90
1415;DHT22;702;49.466;11.086;2022-08-21T05:56:11;16.70;99.90
1415;DHT22;702;49.466;11.086;2022-08-21T05:58:40;16.80;99.90
1415;DHT22;702;49.466;11.086;2022-08-21T06:01:07;16.90;99.90
1415;DHT22;702;49.466;11.086;2022-08-21T06:03:38;16.90;99.90
1415;DHT22;702;49.466;11.086;2022-08-21T06:06:08;17.10;99.90
1415;DHT22;702;49.466;11.086;2022-08-21T06:08:36;17.30;99.90
1415;DHT22;702;49.466;11.086;2022-08-21T06:11:04;17.30;99.90
1415;DHT22;702;49.466;11.086;2022-08-21T06:13:32;17.40;99.90
1415;DHT22;702;49.466;11.086;2022-08-21T06:16:03;17.30;99.90
1415;DHT22;702;49.466;11.086;2022-08-21T06:18:33;17.50;99.90
1415;DHT22;702;49.466;11.086;2022-08-21T06:21:01;17.70;99.90
1415;DHT22;702;49.466;11.086;2022-08-21T06:23:29;17.70;99.90
1415;DHT22;702;49.466;11.086;2022-08-21T06:25:57;17.80;99.90
1415;DHT22;702;49.466;11.086;2022-08-21T06:28:24;17.90;99.90
1415;DHT22;702;49.466;11.086;2022-08-21T06:30:51;17.90;99.90
1415;DHT22;702;49.466;11.086;2022-08-21T06:33:18;17.70;99.90
1415;DHT22;702;49.466;11.086;2022-08-21T06:35:46;17.70;99.90
1415;DHT22;702;49.466;11.086;2022-08-21T06:38:13;17.70;99.90
1415;DHT22;702;49.466;11.086;2022-08-21T06:40:43;17.90;99.90
1415;DHT22;702;49.466;11.086;2022-08-21T06:43:15;17.90;99.90
1415;DHT22;702;49.466;11.086;2022-08-21T06:45:43;17.80;99.90
1415;DHT22;702;49.466;11.086;2022-08-21T06:48:11;17.80;99.90
1415;DHT22;702;49.466;11.086;2022-08-21T06:50:38;17.80;99.90
1415;DHT22;702;49.466;11.086;2022-08-21T06:53:08;17.60;99.90
1415;DHT22;702;49.466;11.086;2022-08-21T06:55:37;17.60;99.90
1415;DHT22;702;49.466;11.086;2022-08-21T06:58:06;17.80;99.90
1415;DHT22;702;49.466;11.086;2022-08-21T07:00:36;18.00;99.90
1415;DHT22;702;49.466;11.086;2022-08-21T07:03:06;18.00;99.90
1415;DHT22;702;49.466;11.086;2022-08-21T07:05:34;17.80;99.90
1415;DHT22;702;49.466;11.086;2022-08-21T07:08:01;17.80;99.90
1415;DHT22;702;49.466;11.086;2022-08-21T07:10:29;18.20;99.90
1415;DHT22;702;49.466;11.086;2022-08-21T07:12:56;18.30;99.90
1415;DHT22;702;49.466;11.086;2022-08-21T07:15:24;18.30;99.50
1415;DHT22;702;49.466;11.086;2022-08-21T07:17:52;18.30;99.90
1415;DHT22;702;49.466;11.086;2022-08-21T07:20:19;18.30;99.50
1415;DHT22;702;49.466;11.086;2022-08-21T07:22:47;18.00;99.90
1415;DHT22;702;49.466;11.086;2022-08-21T07:25:14;18.00;99.90
1415;DHT22;702;49.466;11.086;2022-08-21T07:27:41;18.00;99.90
1415;DHT22;702;49.466;11.086;2022-08-21T07:30:09;18.10;99.30
1415;DHT22;702;49.466;11.086;2022-08-21T07:32:39;18.20;98.10
1415;DHT22;702;49.466;11.086;2022-08-21T07:35:07;18.10;99.80
1415;DHT22;702;49.466;11.086;2022-08-21T07:37:34;18.30;99.30
1415;DHT22;702;49.466;11.086;2022-08-21T07:40:03;18.30;97.80
1415;DHT22;702;49.466;11.086;2022-08-21T07:42:31;18.20;99.30
1415;DHT22;702;49.466;11.086;2022-08-21T07:44:58;18.10;98.80
1415;DHT22;702;49.466;11.086;2022-08-21T07:47:25;17.90;99.90
1415;DHT22;702;49.466;11.086;2022-08-21T07:49:54;18.10;99.90
1415;DHT22;702;49.466;11.086;2022-08-21T07:52:21;18.60;97.50
1415;DHT22;702;49.466;11.086;2022-08-21T07:54:48;18.90;95.70
1415;DHT22;702;49.466;11.086;2022-08-21T07:57:16;18.80;95.90
1415;DHT22;702;49.466;11.086;2022-08-21T07:59:44;18.80;95.30
1415;DHT22;702;49.466;11.086;2022-08-21T08:02:21;18.80;96.50
1415;DHT22;702;49.466;11.086;2022-08-21T08:04:50;19.00;95.70
1415;DHT22;702;49.466;11.086;2022-08-21T08:07:19;19.30;95.10
1415;DHT22;702;49.466;11.086;2022-08-21T08:09:47;19.50;94.20
1415;DHT22;702;49.466;11.086;2022-08-21T08:12:14;19.70;92.80
1415;DHT22;702;49.466;11.086;2022-08-21T08:14:41;19.60;93.10
1415;DHT22;702;49.466;11.086;2022-08-21T08:17:09;19.50;93.50
1415;DHT22;702;49.466;11.086;2022-08-21T08:19:36;19.30;93.80
1415;DHT22;702;49.466;11.086;2022-08-21T08:22:12;19.40;94.20
1415;DHT22;702;49.466;11.086;2022-08-21T08:24:42;19.50;93.40
1415;DHT22;702;49.466;11.086;2022-08-21T08:27:09;20.10;92.00
1415;DHT22;702;49.466;11.086;2022-08-21T08:29:37;20.40;91.10
1415;DHT22;702;49.466;11.086;2022-08-21T08:32:05;20.80;90.70
1415;DHT22;702;49.466;11.086;2022-08-21T08:34:33;21.10;90.50
1415;DHT22;702;49.466;11.086;2022-08-21T08:37:02;21.50;89.90
1415;DHT22;702;49.466;11.086;2022-08-21T08:39:31;21.50;88.90
1415;DHT22;702;49.466;11.086;2022-08-21T08:42:06;21.40;89.00
1415;DHT22;702;49.466;11.086;2022-08-21T08:44:50;21.10;89.60
1415;DHT22;702;49.466;11.086;2022-08-21T08:47:27;21.10;89.50
1415;DHT22;702;49.466;11.086;2022-08-21T08:50:03;21.30;89.50
1415;DHT22;702;49.466;11.086;2022-08-21T08:52:33;20.90;90.00
1415;DHT22;702;49.466;11.086;2022-08-21T08:55:06;20.80;90.20
1415;DHT22;702;49.466;11.086;2022-08-21T08:57:37;20.80;90.30
1415;DHT22;702;49.466;11.086;2022-08-21T09:00:10;20.90;90.30
1415;DHT22;702;49.466;11.086;2022-08-21T09:02:41;20.90;90.10
1415;DHT22;702;49.466;11.086;2022-08-21T09:05:20;21.00;90.10
1415;DHT22;702;49.466;11.086;2022-08-21T09:08:10;20.90;90.10
1415;DHT22;702;49.466;11.086;2022-08-21T09:10:49;20.80;90.20
1415;DHT22;702;49.466;11.086;2022-08-21T09:13:32;21.00;90.20
1415;DHT22;702;49.466;11.086;2022-08-21T09:16:09;21.20;89.70
1415;DHT22;702;49.466;11.086;2022-08-21T09:18:48;21.60;89.10
1415;DHT22;702;49.466;11.086;2022-08-21T09:21:28;21.80;88.40
1415;DHT22;702;49.466;11.086;2022-08-21T09:24:01;22.00;87.80
1415;DHT22;702;49.466;11.086;2022-08-21T09:26:35;21.90;87.70
1415;DHT22;702;49.466;11.086;2022-08-21T09:29:11;21.40;88.60
1415;DHT22;702;49.466;11.086;2022-08-21T09:31:38;21.70;88.40
1415;DHT22;702;49.466;11.086;2022-08-21T09:34:07;21.60;88.20
1415;DHT22;702;49.466;11.086;2022-08-21T09:36:39;21.60;88.50
1415;DHT22;702;49.466;11.086;2022-08-21T09:39:08;21.60;88.40
1415;DHT22;702;49.466;11.086;2022-08-21T09:41:37;21.50;88.10
1415;DHT22;702;49.466;11.086;2022-08-21T09:44:07;21.60;87.60
1415;DHT22;702;49.466;11.086;2022-08-21T09:46:36;21.90;87.40
1415;DHT22;702;49.466;11.086;2022-08-21T09:49:03;22.10;87.30
1415;DHT22;702;49.466;11.086;2022-08-21T09:51:36;22.10;87.50
1415;DHT22;702;49.466;11.086;2022-08-21T09:54:14;22.60;86.50
1415;DHT22;702;49.466;11.086;2022-08-21T09:56:53;22.70;86.00
1415;DHT22;702;49.466;11.086;2022-08-21T09:59:42;22.50;85.80
1415;DHT22;702;49.466;11.086;2022-08-21T10:02:24;22.60;86.20
1415;DHT22;702;49.466;11.086;2022-08-21T10:04:56;22.90;85.40
1415;DHT22;702;49.466;11.086;2022-08-21T10:07:27;22.90;84.30
1415;DHT22;702;49.466;11.086;2022-08-21T10:10:00;22.80;84.30
1415;DHT22;702;49.466;11.086;2022-08-21T10:12:37;22.80;84.20
1415;DHT22;702;49.466;11.086;2022-08-21T10:15:16;22.90;83.70
1415;DHT22;702;49.466;11.086;2022-08-21T10:17:53;22.70;84.30
1415;DHT22;702;49.466;11.086;2022-08-21T10:20:29;22.30;85.00
1415;DHT22;702;49.466;11.086;2022-08-21T10:23:18;22.20;85.70
1415;DHT22;702;49.466;11.086;2022-08-21T10:26:04;22.20;85.90
1415;DHT22;702;49.466;11.086;2022-08-21T10:28:42;21.70;86.20
1415;DHT22;702;49.466;11.086;2022-08-21T10:31:18;21.60;86.50
1415;DHT22;702;49.466;11.086;2022-08-21T10:33:54;21.50;86.80
1415;DHT22;702;49.466;11.086;2022-08-21T10:36:35;21.30;87.40
1415;DHT22;702;49.466;11.086;2022-08-21T10:39:14;21.20;87.40
1415;DHT22;702;49.466;11.086;2022-08-21T10:42:09;21.00;87.20
1415;DHT22;702;49.466;11.086;2022-08-21T10:44:49;20.90;87.20
1415;DHT22;702;49.466;11.086;2022-08-21T10:47:30;20.90;87.60
1415;DHT22;702;49.466;11.086;2022-08-21T10:50:10;21.00;87.60
1415;DHT22;702;49.466;11.086;2022-08-21T10:52:56;21.00;87.60
1415;DHT22;702;49.466;11.086;2022-08-21T10:55:36;21.20;87.50
1415;DHT22;702;49.466;11.086;2022-08-21T10:58:10;21.40;87.30
1415;DHT22;702;49.466;11.086;2022-08-21T11:00:43;21.50;87.00
1415;DHT22;702;49.466;11.086;2022-08-21T11:03:17;21.50;87.00
1415;DHT22;702;49.466;11.086;2022-08-21T11:05:49;21.90;86.90
1415;DHT22;702;49.466;11.086;2022-08-21T11:08:23;22.00;85.60
1415;DHT22;702;49.466;11.086;2022-08-21T11:10:58;21.90;85.60
1415;DHT22;702;49.466;11.086;2022-08-21T11:13:37;22.00;85.20
1415;DHT22;702;49.466;11.086;2022-08-21T11:16:18;22.10;84.20
1415;DHT22;702;49.466;11.086;2022-08-21T11:18:55;22.30;82.70
1415;DHT22;702;49.466;11.086;2022-08-21T11:21:32;22.40;82.40
1415;DHT22;702;49.466;11.086;2022-08-21T11:24:15;22.60;82.90
1415;DHT22;702;49.466;11.086;2022-08-21T11:26:51;22.80;81.30
1415;DHT22;702;49.466;11.086;2022-08-21T11:29:25;22.80;80.50
1415;DHT22;702;49.466;11.086;2022-08-21T11:32:20;22.90;80.80
1415;DHT22;702;49.466;11.086;2022-08-21T11:35:03;23.10;80.80
1415;DHT22;702;49.466;11.086;2022-08-21T11:37:53;23.20;80.40
1415;DHT22;702;49.466;11.086;2022-08-21T11:40:42;23.00;79.20
1415;DHT22;702;49.466;11.086;2022-08-21T11:43:20;22.90;79.20
1415;DHT22;702;49.466;11.086;2022-08-21T11:45:54;23.00;79.90
1415;DHT22;702;49.466;11.086;2022-08-21T11:48:35;23.00;79.20
1415;DHT22;702;49.466;11.086;2022-08-21T11:51:12;23.30;78.70
1415;DHT22;702;49.466;11.086;2022-08-21T11:53:48;23.50;77.60
1415;DHT22;702;49.466;11.086;2022-08-21T11:56:21;23.80;76.20
1415;DHT22;702;49.466;11.086;2022-08-21T11:58:53;24.10;74.70
1415;DHT22;702;49.466;11.086;2022-08-21T12:01:26;24.30;73.80
1415;DHT22;702;49.466;11.086;2022-08-21T12:03:58;24.60;70.20
1415;DHT22;702;49.466;11.086;2022-08-21T12:06:31;24.90;68.00
1415;DHT22;702;49.466;11.086;2022-08-21T12:09:04;25.00;65.20
1415;DHT22;702;49.466;11.086;2022-08-21T12:11:45;24.80;67.30
1415;DHT22;702;49.466;11.086;2022-08-21T12:14:15;24.70;65.30
1415;DHT22;702;49.466;11.086;2022-08-21T12:16:46;24.50;64.10
1415;DHT22;702;49.466;11.086;2022-08-21T12:19:28;24.40;64.60
1415;DHT22;702;49.466;11.086;2022-08-21T12:22:08;24.70;65.60
1415;DHT22;702;49.466;11.086;2022-08-21T12:24:39;24.70;70.40
1415;DHT22;702;49.466;11.086;2022-08-21T12:27:39;24.80;71.00
1415;DHT22;702;49.466;11.086;2022-08-21T12:30:23;24.80;70.70
1415;DHT22;702;49.466;11.086;2022-08-21T12:33:04;24.80;70.70
1415;DHT22;702;49.466;11.086;2022-08-21T12:35:36;24.90;70.50
1415;DHT22;702;49.466;11.086;2022-08-21T12:38:13;24.80;70.20
1415;DHT22;702;49.466;11.086;2022-08-21T12:40:47;24.60;70.60
1415;DHT22;702;49.466;11.086;2022-08-21T12:43:20;24.80;70.30
1415;DHT22;702;49.466;11.086;2022-08-21T12:45:51;24.90;69.10
1415;DHT22;702;49.466;11.086;2022-08-21T12:48:22;24.70;68.40
1415;DHT22;702;49.466;11.086;2022-08-21T12:50:55;24.60;68.70
1415;DHT22;702;49.466;11.086;2022-08-21T12:53:30;24.60;69.10
1415;DHT22;702;49.466;11.086;2022-08-21T12:56:02;24.30;68.70
1415;DHT22;702;49.466;11.086;2022-08-21T12:58:31;24.30;68.70
1415;DHT22;702;49.466;11.086;2022-08-21T13:01:03;24.20;68.40
1415;DHT22;702;49.466;11.086;2022-08-21T13:03:35;24.30;68.10
1415;DHT22;702;49.466;11.086;2022-08-21T13:06:03;24.40;66.80
1415;DHT22;702;49.466;11.086;2022-08-21T13:08:34;24.60;66.00
1415;DHT22;702;49.466;11.086;2022-08-21T13:11:05;24.70;65.90
1415;DHT22;702;49.466;11.086;2022-08-21T13:13:33;24.80;66.30
1415;DHT22;702;49.466;11.086;2022-08-21T13:16:04;24.80;65.60
1415;DHT22;702;49.466;11.086;2022-08-21T13:18:34;24.70;64.90
1415;DHT22;702;49.466;11.086;2022-08-21T13:21:05;25.10;64.50
1415;DHT22;702;49.466;11.086;2022-08-21T13:23:36;25.60;64.60
1415;DHT22;702;49.466;11.086;2022-08-21T13:26:12;25.80;63.70
1415;DHT22;702;49.466;11.086;2022-08-21T13:28:40;25.80;63.20
1415;DHT22;702;49.466;11.086;2022-08-21T13:31:09;25.90;62.50
1415;DHT22;702;49.466;11.086;2022-08-21T13:33:38;25.90;62.40
1415;DHT22;702;49.466;11.086;2022-08-21T13:36:10;25.80;62.50
1415;DHT22;702;49.466;11.086;2022-08-21T13:38:42;25.90;63.10
1415;DHT22;702;49.466;11.086;2022-08-21T13:41:19;25.60;63.70
1415;DHT22;702;49.466;11.086;2022-08-21T13:43:56;25.40;64.30
1415;DHT22;702;49.466;11.086;2022-08-21T13:46:28;25.20;64.00
1415;DHT22;702;49.466;11.086;2022-08-21T13:48:59;25.10;63.70
1415;DHT22;702;49.466;11.086;2022-08-21T13:51:28;25.10;63.00
1415;DHT22;702;49.466;11.086;2022-08-21T13:53:59;25.00;62.50
1415;DHT22;702;49.466;11.086;2022-08-21T13:56:30;25.20;63.70
1415;DHT22;702;49.466;11.086;2022-08-21T13:59:00;25.30;62.60
1415;DHT22;702;49.466;11.086;2022-08-21T14:01:32;25.20;62.30
1415;DHT22;702;49.466;11.086;2022-08-21T14:04:03;25.30;62.50
1415;DHT22;702;49.466;11.086;2022-08-21T14:06:35;25.20;62.00
1415;DHT22;702;49.466;11.086;2022-08-21T14:09:11;25.00;61.20
1415;DHT22;702;49.466;11.086;2022-08-21T14:11:41;25.00;60.90
1415;DHT22;702;49.466;11.086;2022-08-21T14:14:17;24.90;60.90
1415;DHT22;702;49.466;11.086;2022-08-21T14:16:54;25.20;62.00
1415;DHT22;702;49.466;11.086;2022-08-21T14:19:26;25.30;60.50
1415;DHT22;702;49.466;11.086;2022-08-21T14:21:54;25.20;61.10
1415;DHT22;702;49.466;11.086;2022-08-21T14:24:28;25.30;60.90
1415;DHT22;702;49.466;11.086;2022-08-21T14:27:01;25.20;60.40
1415;DHT22;702;49.466;11.086;2022-08-21T14:29:34;25.00;60.70
1415;DHT22;702;49.466;11.086;2022-08-21T14:32:09;24.80;60.50
1415;DHT22;702;49.466;11.086;2022-08-21T14:34:39;24.80;60.80
1415;DHT22;702;49.466;11.086;2022-08-21T14:37:06;25.00;61.10
1415;DHT22;702;49.466;11.086;2022-08-21T14:39:35;25.30;61.20
1415;DHT22;702;49.466;11.086;2022-08-21T14:42:03;25.50;61.10
1415;DHT22;702;49.466;11.086;2022-08-21T14:44:30;25.60;60.90
1415;DHT22;702;49.466;11.086;2022-08-21T14:46:58;25.70;59.20
1415;DHT22;702;49.466;11.086;2022-08-21T14:49:28;25.30;59.20
1415;DHT22;702;49.466;11.086;2022-08-21T14:51:55;25.30;59.70
1415;DHT22;702;49.466;11.086;2022-08-21T14:54:24;25.20;58.70
1415;DHT22;702;49.466;11.086;2022-08-21T14:56:54;25.20;59.10
1415;DHT22;702;49.466;11.086;2022-08-21T14:59:21;25.40;59.40
1415;DHT22;702;49.466;11.086;2022-08-21T15:01:49;25.40;58.00
1415;DHT22;702;49.466;11.086;2022-08-21T15:04:17;25.40;58.10
1415;DHT22;702;49.466;11.086;2022-08-21T15:06:44;25.40;58.80
1415;DHT22;702;49.466;11.086;2022-08-21T15:09:12;25.50;57.90
1415;DHT22;702;49.466;11.086;2022-08-21T15:11:39;25.60;58.60
1415;DHT22;702;49.466;11.086;2022-08-21T15:14:15;25.50;58.70
1415;DHT22;702;49.466;11.086;2022-08-21T15:16:45;25.60;59.10
1415;DHT22;702;49.466;11.086;2022-08-21T15:19:13;25.90;58.00
1415;DHT22;702;49.466;11.086;2022-08-21T15:21:40;25.90;57.90
1415;DHT22;702;49.466;11.086;2022-08-21T15:24:07;26.00;57.70
1415;DHT22;702;49.466;11.086;2022-08-21T15:26:35;26.10;57.80
1415;DHT22;702;49.466;11.086;2022-08-21T15:29:04;25.90;57.60
1415;DHT22;702;49.466;11.086;2022-08-21T15:31:35;25.80;56.90
1415;DHT22;702;49.466;11.086;2022-08-21T15:34:03;25.70;57.00
1415;DHT22;702;49.466;11.086;2022-08-21T15:36:30;25.80;58.10
1415;DHT22;702;49.466;11.086;2022-08-21T15:38:58;25.80;55.70
1415;DHT22;702;49.466;11.086;2022-08-21T15:41:25;25.60;56.40
1415;DHT22;702;49.466;11.086;2022-08-21T15:43:53;25.60;57.00
1415;DHT22;702;49.466;11.086;2022-08-21T15:46:20;25.60;56.70
1415;DHT22;702;49.466;11.086;2022-08-21T15:48:49;25.70;55.60
1415;DHT22;702;49.466;11.086;2022-08-21T15:51:17;25.80;55.50
1415;DHT22;702;49.466;11.086;2022-08-21T15:53:45;25.80;55.60
1415;DHT22;702;49.466;11.086;2022-08-21T15:56:20;25.80;55.50
1415;DHT22;702;49.466;11.086;2022-08-21T15:58:49;25.50;55.90
1415;DHT22;702;49.466;11.086;2022-08-21T16:01:18;25.40;54.10
1415;DHT22;702;49.466;11.086;2022-08-21T16:03:50;25.40;53.80
1415;DHT22;702;49.466;11.086;2022-08-21T16:06:19;25.40;54.00
1415;DHT22;702;49.466;11.086;2022-08-21T16:08:46;25.30;54.30
1415;DHT22;702;49.466;11.086;2022-08-21T16:11:14;25.40;54.70
1415;DHT22;702;49.466;11.086;2022-08-21T16:13:44;25.50;54.90
1415;DHT22;702;49.466;11.086;2022-08-21T16:16:16;25.40;55.10
1415;DHT22;702;49.466;11.086;2022-08-21T16:18:44;25.40;55.20
1415;DHT22;702;49.466;11.086;2022-08-21T16:21:14;25.40;54.90
1415;DHT22;702;49.466;11.086;2022-08-21T16:23:42;25.40;54.40
1415;DHT22;702;49.466;11.086;2022-08-21T16:26:11;25.50;54.00